sensor_id;sensor_type;location;lat;lon;timestamp;P1;durP1;ratioP1;P2;durP2;ratioP2
57718;SDS011;43561;50.090;18.522;2023-02-13T00:08:11;125.57;;;57.00;;
57718;SDS011;43561;50.090;18.522;2023-02-13T00:18:12;135.70;;;58.15;;
57718;SDS011;43561;50.090;18.522;2023-02-13T00:28:14;106.80;;;55.95;;
57718;SDS011;43561;50.090;18.522;2023-02-13T00:38:16;101.28;;;48.58;;
57718;SDS011;43561;50.090;18.522;2023-02-13T00:48:19;94.53;;;45.67;;
57718;SDS011;43561;50.090;18.522;2023-02-13T00:58:22;116.93;;;51.88;;
57718;SDS011;43561;50.090;18.522;2023-02-13T01:08:26;97.00;;;44.42;;
57718;SDS011;43561;50.090;18.522;2023-02-13T01:18:28;111.90;;;47.83;;
57718;SDS011;43561;50.090;18.522;2023-02-13T01:28:30;120.60;;;53.53;;
57718;SDS011;43561;50.090;18.522;2023-02-13T01:38:32;124.72;;;52.30;;
57718;SDS011;43561;50.090;18.522;2023-02-13T01:48:34;96.88;;;49.92;;
57718;SDS011;43561;50.090;18.522;2023-02-13T01:58:36;114.60;;;55.05;;
57718;SDS011;43561;50.090;18.522;2023-02-13T02:08:40;111.38;;;49.03;;
57718;SDS011;43561;50.090;18.522;2023-02-13T02:18:51;99.22;;;40.75;;
57718;SDS011;43561;50.090;18.522;2023-02-13T02:29:13;69.70;;;34.05;;
57718;SDS011;43561;50.090;18.522;2023-02-13T02:49:40;55.78;;;34.75;;
57718;SDS011;43561;50.090;18.522;2023-02-13T02:59:46;74.53;;;34.30;;
57718;SDS011;43561;50.090;18.522;2023-02-13T03:10:00;66.15;;;38.00;;
57718;SDS011;43561;50.090;18.522;2023-02-13T03:20:22;64.63;;;32.38;;
57718;SDS011;43561;50.090;18.522;2023-02-13T03:41:16;49.33;;;23.00;;
57718;SDS011;43561;50.090;18.522;2023-02-13T04:02:00;42.83;;;15.07;;
57718;SDS011;43561;50.090;18.522;2023-02-13T04:12:18;26.83;;;15.75;;
57718;SDS011;43561;50.090;18.522;2023-02-13T04:22:24;19.63;;;15.00;;
57718;SDS011;43561;50.090;18.522;2023-02-13T04:32:26;34.00;;;14.07;;
57718;SDS011;43561;50.090;18.522;2023-02-13T04:42:28;20.45;;;14.60;;
57718;SDS011;43561;50.090;18.522;2023-02-13T04:52:30;27.52;;;14.55;;
57718;SDS011;43561;50.090;18.522;2023-02-13T05:02:32;32.97;;;17.13;;
57718;SDS011;43561;50.090;18.522;2023-02-13T05:12:33;32.10;;;19.90;;
57718;SDS011;43561;50.090;18.522;2023-02-13T05:22:36;63.42;;;25.73;;
57718;SDS011;43561;50.090;18.522;2023-02-13T05:32:37;78.97;;;37.13;;
57718;SDS011;43561;50.090;18.522;2023-02-13T05:42:40;68.63;;;36.72;;
57718;SDS011;43561;50.090;18.522;2023-02-13T05:52:42;64.82;;;37.17;;
57718;SDS011;43561;50.090;18.522;2023-02-13T06:02:44;68.28;;;33.38;;
57718;SDS011;43561;50.090;18.522;2023-02-13T06:12:46;92.57;;;39.72;;
57718;SDS011;43561;50.090;18.522;2023-02-13T06:22:48;79.95;;;34.80;;
57718;SDS011;43561;50.090;18.522;2023-02-13T06:32:51;76.95;;;41.75;;
57718;SDS011;43561;50.090;18.522;2023-02-13T06:42:53;98.90;;;46.45;;
57718;SDS011;43561;50.090;18.522;2023-02-13T06:52:55;144.55;;;59.47;;
57718;SDS011;43561;50.090;18.522;2023-02-13T07:03:01;121.18;;;55.17;;
57718;SDS011;43561;50.090;18.522;2023-02-13T07:13:04;101.53;;;45.35;;
57718;SDS011;43561;50.090;18.522;2023-02-13T07:23:07;102.68;;;46.88;;
57718;SDS011;43561;50.090;18.522;2023-02-13T07:33:09;74.18;;;41.47;;
57718;SDS011;43561;50.090;18.522;2023-02-13T07:43:13;82.65;;;43.33;;
57718;SDS011;43561;50.090;18.522;2023-02-13T07:53:15;68.80;;;37.67;;
57718;SDS011;43561;50.090;18.522;2023-02-13T08:03:17;88.82;;;44.70;;
57718;SDS011;43561;50.090;18.522;2023-02-13T08:13:19;101.18;;;44.05;;
57718;SDS011;43561;50.090;18.522;2023-02-13T08:23:21;101.75;;;39.67;;
57718;SDS011;43561;50.090;18.522;2023-02-13T08:33:23;88.40;;;35.58;;
57718;SDS011;43561;50.090;18.522;2023-02-13T08:43:25;83.63;;;42.83;;
57718;SDS011;43561;50.090;18.522;2023-02-13T08:53:27;100.95;;;36.33;;
57718;SDS011;43561;50.090;18.522;2023-02-13T09:03:29;56.20;;;32.92;;
57718;SDS011;43561;50.090;18.522;2023-02-13T09:13:31;61.88;;;30.35;;
57718;SDS011;43561;50.090;18.522;2023-02-13T09:23:35;76.90;;;35.90;;
57718;SDS011;43561;50.090;18.522;2023-02-13T09:33:39;67.03;;;34.47;;
57718;SDS011;43561;50.090;18.522;2023-02-13T09:54:17;35.50;;;21.40;;
57718;SDS011;43561;50.090;18.522;2023-02-13T10:14:57;39.92;;;16.05;;
57718;SDS011;43561;50.090;18.522;2023-02-13T10:25:26;16.35;;;10.38;;
57718;SDS011;43561;50.090;18.522;2023-02-13T10:35:30;23.80;;;12.63;;
57718;SDS011;43561;50.090;18.522;2023-02-13T11:06:27;51.65;;;22.67;;
57718;SDS011;43561;50.090;18.522;2023-02-13T11:16:32;27.73;;;15.30;;
57718;SDS011;43561;50.090;18.522;2023-02-13T11:26:51;28.52;;;15.73;;
57718;SDS011;43561;50.090;18.522;2023-02-13T11:37:08;26.77;;;16.73;;
57718;SDS011;43561;50.090;18.522;2023-02-13T11:47:20;28.05;;;14.88;;
57718;SDS011;43561;50.090;18.522;2023-02-13T11:57:37;23.70;;;13.10;;
57718;SDS011;43561;50.090;18.522;2023-02-13T12:07:39;25.60;;;13.10;;
57718;SDS011;43561;50.090;18.522;2023-02-13T12:17:43;29.30;;;12.45;;
57718;SDS011;43561;50.090;18.522;2023-02-13T12:48:13;42.35;;;16.17;;
57718;SDS011;43561;50.090;18.522;2023-02-13T13:30:05;31.30;;;16.25;;
57718;SDS011;43561;50.090;18.522;2023-02-13T13:40:35;31.40;;;18.00;;
57718;SDS011;43561;50.090;18.522;2023-02-13T13:50:46;27.55;;;15.25;;
57718;SDS011;43561;50.090;18.522;2023-02-13T14:01:14;34.40;;;17.13;;
57718;SDS011;43561;50.090;18.522;2023-02-13T14:11:33;46.45;;;20.48;;
57718;SDS011;43561;50.090;18.522;2023-02-13T14:21:37;32.40;;;21.08;;
57718;SDS011;43561;50.090;18.522;2023-02-13T14:31:39;28.33;;;14.68;;
57718;SDS011;43561;50.090;18.522;2023-02-13T14:51:55;23.83;;;13.65;;
57718;SDS011;43561;50.090;18.522;2023-02-13T15:12:29;75.88;;;31.20;;
57718;SDS011;43561;50.090;18.522;2023-02-13T15:22:34;33.28;;;16.60;;
57718;SDS011;43561;50.090;18.522;2023-02-13T15:32:37;23.42;;;14.30;;
57718;SDS011;43561;50.090;18.522;2023-02-13T15:42:39;26.75;;;13.93;;
57718;SDS011;43561;50.090;18.522;2023-02-13T15:52:41;38.38;;;18.13;;
57718;SDS011;43561;50.090;18.522;2023-02-13T16:02:44;41.17;;;24.45;;
57718;SDS011;43561;50.090;18.522;2023-02-13T16:12:47;42.85;;;22.30;;
57718;SDS011;43561;50.090;18.522;2023-02-13T16:22:50;26.27;;;18.08;;
57718;SDS011;43561;50.090;18.522;2023-02-13T16:53:54;33.85;;;16.73;;
57718;SDS011;43561;50.090;18.522;2023-02-13T17:04:00;45.05;;;23.48;;
57718;SDS011;43561;50.090;18.522;2023-02-13T17:14:08;51.15;;;23.73;;
57718;SDS011;43561;50.090;18.522;2023-02-13T17:24:13;32.30;;;18.27;;
57718;SDS011;43561;50.090;18.522;2023-02-13T17:34:18;39.72;;;19.33;;
57718;SDS011;43561;50.090;18.522;2023-02-13T17:44:20;25.33;;;14.45;;
57718;SDS011;43561;50.090;18.522;2023-02-13T17:54:22;29.00;;;18.08;;
57718;SDS011;43561;50.090;18.522;2023-02-13T18:04:24;33.92;;;16.92;;
57718;SDS011;43561;50.090;18.522;2023-02-13T18:14:28;34.50;;;21.70;;
57718;SDS011;43561;50.090;18.522;2023-02-13T18:24:32;39.08;;;20.05;;
57718;SDS011;43561;50.090;18.522;2023-02-13T18:34:35;37.30;;;17.10;;
57718;SDS011;43561;50.090;18.522;2023-02-13T18:44:39;35.25;;;16.65;;
57718;SDS011;43561;50.090;18.522;2023-02-13T18:54:41;27.98;;;14.23;;
57718;SDS011;43561;50.090;18.522;2023-02-13T19:04:43;42.22;;;18.00;;
57718;SDS011;43561;50.090;18.522;2023-02-13T19:14:45;54.95;;;23.45;;
57718;SDS011;43561;50.090;18.522;2023-02-13T19:24:47;61.85;;;24.02;;
57718;SDS011;43561;50.090;18.522;2023-02-13T19:34:49;66.00;;;27.02;;
57718;SDS011;43561;50.090;18.522;2023-02-13T19:44:51;49.38;;;25.50;;
57718;SDS011;43561;50.090;18.522;2023-02-13T19:54:53;55.60;;;26.45;;
57718;SDS011;43561;50.090;18.522;2023-02-13T20:04:55;55.88;;;28.58;;
57718;SDS011;43561;50.090;18.522;2023-02-13T20:14:56;66.63;;;25.77;;
57718;SDS011;43561;50.090;18.522;2023-02-13T20:24:59;42.92;;;20.98;;
57718;SDS011;43561;50.090;18.522;2023-02-13T20:35:02;23.77;;;12.73;;
57718;SDS011;43561;50.090;18.522;2023-02-13T20:45:04;28.90;;;12.32;;
57718;SDS011;43561;50.090;18.522;2023-02-13T20:55:06;27.42;;;14.32;;
57718;SDS011;43561;50.090;18.522;2023-02-13T21:05:08;24.95;;;14.90;;
57718;SDS011;43561;50.090;18.522;2023-02-13T21:15:10;30.23;;;14.65;;
57718;SDS011;43561;50.090;18.522;2023-02-13T21:25:12;34.78;;;13.13;;
57718;SDS011;43561;50.090;18.522;2023-02-13T21:35:14;27.00;;;14.02;;
57718;SDS011;43561;50.090;18.522;2023-02-13T21:45:16;48.25;;;19.27;;
57718;SDS011;43561;50.090;18.522;2023-02-13T21:55:18;60.65;;;26.35;;
57718;SDS011;43561;50.090;18.522;2023-02-13T22:05:20;35.45;;;18.70;;
57718;SDS011;43561;50.090;18.522;2023-02-13T22:15:22;37.65;;;21.45;;
57718;SDS011;43561;50.090;18.522;2023-02-13T22:25:23;42.28;;;18.88;;
57718;SDS011;43561;50.090;18.522;2023-02-13T22:35:25;31.05;;;16.77;;
57718;SDS011;43561;50.090;18.522;2023-02-13T22:45:27;49.90;;;21.98;;
57718;SDS011;43561;50.090;18.522;2023-02-13T22:55:29;48.53;;;25.20;;
57718;SDS011;43561;50.090;18.522;2023-02-13T23:05:31;45.58;;;18.58;;
57718;SDS011;43561;50.090;18.522;2023-02-13T23:15:33;33.25;;;15.07;;
57718;SDS011;43561;50.090;18.522;2023-02-13T23:25:37;41.08;;;18.50;;
57718;SDS011;43561;50.090;18.522;2023-02-13T23:35:39;47.90;;;20.55;;
57718;SDS011;43561;50.090;18.522;2023-02-13T23:45:41;31.42;;;16.33;;
57718;SDS011;43561;50.090;18.522;2023-02-13T23:55:43;40.53;;;17.77;;
